sensor_id;sensor_type;location;lat;lon;timestamp;pressure;altitude;pressure_sealevel;temperature;humidity
63321;BME280;49449;48.800;9.534;2023-04-09T00:01:22;99246.09;;;8.88;40.21
63321;BME280;49449;48.800;9.534;2023-04-09T00:03:51;99247.75;;;8.89;40.33
63321;BME280;49449;48.800;9.534;2023-04-09T00:06:20;99246.94;;;8.88;40.21
63321;BME280;49449;48.800;9.534;2023-04-09T00:08:48;99241.88;;;8.87;40.40
63321;BME280;49449;48.800;9.534;2023-04-09T00:11:16;99239.63;;;8.84;40.32
63321;BME280;49449;48.800;9.534;2023-04-09T00:13:43;99240.63;;;8.83;40.30
63321;BME280;49449;48.800;9.534;2023-04-09T00:16:11;99234.56;;;8.82;40.50
63321;BME280;49449;48.800;9.534;2023-04-09T00:18:39;99231.91;;;8.82;40.41
63321;BME280;49449;48.800;9.534;2023-04-09T00:21:07;99237.38;;;8.81;40.45
63321;BME280;49449;48.800;9.534;2023-04-09T00:23:36;99231.50;;;8.79;40.36
63321;BME280;49449;48.800;9.534;2023-04-09T00:26:04;99236.78;;;8.79;40.33
63321;BME280;49449;48.800;9.534;2023-04-09T00:30:59;99232.72;;;8.76;40.39
63321;BME280;49449;48.800;9.534;2023-04-09T00:33:27;99234.28;;;8.70;40.51
63321;BME280;49449;48.800;9.534;2023-04-09T00:35:55;99230.44;;;8.73;40.37
63321;BME280;49449;48.800;9.534;2023-04-09T00:38:22;99233.28;;;8.71;40.57
63321;BME280;49449;48.800;9.534;2023-04-09T00:40:52;99237.53;;;8.72;40.57
63321;BME280;49449;48.800;9.534;2023-04-09T00:43:19;99230.44;;;8.73;40.48
63321;BME280;49449;48.800;9.534;2023-04-09T00:45:47;99233.72;;;8.75;40.67
63321;BME280;49449;48.800;9.534;2023-04-09T00:48:16;99228.44;;;8.75;40.40
63321;BME280;49449;48.800;9.534;2023-04-09T00:50:44;99232.28;;;8.72;40.49
63321;BME280;49449;48.800;9.534;2023-04-09T00:53:12;99231.44;;;8.72;40.27
63321;BME280;49449;48.800;9.534;2023-04-09T00:55:40;99237.31;;;8.74;40.33
63321;BME280;49449;48.800;9.534;2023-04-09T00:58:10;99239.00;;;8.75;40.10
63321;BME280;49449;48.800;9.534;2023-04-09T01:00:38;99236.09;;;8.70;40.22
63321;BME280;49449;48.800;9.534;2023-04-09T01:03:06;99238.34;;;8.73;40.18
63321;BME280;49449;48.800;9.534;2023-04-09T01:05:40;99239.34;;;8.72;40.11
63321;BME280;49449;48.800;9.534;2023-04-09T01:08:18;99236.50;;;8.60;40.16
63321;BME280;49449;48.800;9.534;2023-04-09T01:10:55;99229.38;;;8.54;40.22
63321;BME280;49449;48.800;9.534;2023-04-09T01:13:29;99228.34;;;8.48;40.16
63321;BME280;49449;48.800;9.534;2023-04-09T01:16:02;99238.88;;;8.48;40.31
63321;BME280;49449;48.800;9.534;2023-04-09T01:18:35;99238.06;;;8.48;40.44
63321;BME280;49449;48.800;9.534;2023-04-09T01:21:07;99235.22;;;8.49;40.56
63321;BME280;49449;48.800;9.534;2023-04-09T01:23:44;99231.19;;;8.53;40.44
63321;BME280;49449;48.800;9.534;2023-04-09T01:26:26;99228.38;;;8.55;40.59
63321;BME280;49449;48.800;9.534;2023-04-09T01:28:58;99227.16;;;8.58;40.51
63321;BME280;49449;48.800;9.534;2023-04-09T01:31:31;99226.94;;;8.59;40.58
63321;BME280;49449;48.800;9.534;2023-04-09T01:34:00;99232.22;;;8.59;40.88
63321;BME280;49449;48.800;9.534;2023-04-09T01:36:29;99231.63;;;8.57;40.64
63321;BME280;49449;48.800;9.534;2023-04-09T01:38:59;99229.97;;;8.56;40.85
63321;BME280;49449;48.800;9.534;2023-04-09T01:41:30;99226.34;;;8.57;40.83
63321;BME280;49449;48.800;9.534;2023-04-09T01:44:02;99232.19;;;8.52;40.93
63321;BME280;49449;48.800;9.534;2023-04-09T01:46:30;99228.75;;;8.52;41.00
63321;BME280;49449;48.800;9.534;2023-04-09T01:49:00;99234.22;;;8.50;41.18
63321;BME280;49449;48.800;9.534;2023-04-09T01:51:28;99238.47;;;8.51;41.21
63321;BME280;49449;48.800;9.534;2023-04-09T01:53:57;99231.56;;;8.50;41.44
63321;BME280;49449;48.800;9.534;2023-04-09T01:56:25;99227.13;;;8.51;41.29
63321;BME280;49449;48.800;9.534;2023-04-09T01:58:53;99242.53;;;8.54;41.43
63321;BME280;49449;48.800;9.534;2023-04-09T02:01:26;99228.75;;;8.52;41.66
63321;BME280;49449;48.800;9.534;2023-04-09T02:04:02;99228.75;;;8.52;41.19
63321;BME280;49449;48.800;9.534;2023-04-09T02:06:33;99234.81;;;8.52;41.11
63321;BME280;49449;48.800;9.534;2023-04-09T02:09:07;99235.84;;;8.51;41.06
63321;BME280;49449;48.800;9.534;2023-04-09T02:11:36;99232.38;;;8.51;41.05
63321;BME280;49449;48.800;9.534;2023-04-09T02:14:06;99235.84;;;8.51;41.11
63321;BME280;49449;48.800;9.534;2023-04-09T02:16:36;99233.41;;;8.50;40.90
63321;BME280;49449;48.800;9.534;2023-04-09T02:19:04;99242.13;;;8.50;40.93
63321;BME280;49449;48.800;9.534;2023-04-09T02:21:32;99231.56;;;8.50;40.82
63321;BME280;49449;48.800;9.534;2023-04-09T02:24:00;99229.94;;;8.43;41.03
63321;BME280;49449;48.800;9.534;2023-04-09T02:26:28;99233.56;;;8.42;40.95
63321;BME280;49449;48.800;9.534;2023-04-09T02:28:55;99223.84;;;8.42;41.01
63321;BME280;49449;48.800;9.534;2023-04-09T02:31:23;99229.09;;;8.42;41.26
63321;BME280;49449;48.800;9.534;2023-04-09T02:33:52;99226.09;;;8.45;41.12
63321;BME280;49449;48.800;9.534;2023-04-09T02:36:22;99230.56;;;8.45;41.07
63321;BME280;49449;48.800;9.534;2023-04-09T02:38:51;99225.28;;;8.45;41.26
63321;BME280;49449;48.800;9.534;2023-04-09T02:41:19;99233.19;;;8.45;41.15
63321;BME280;49449;48.800;9.534;2023-04-09T02:43:47;99230.34;;;8.46;41.27
63321;BME280;49449;48.800;9.534;2023-04-09T02:46:15;99228.13;;;8.43;41.23
63321;BME280;49449;48.800;9.534;2023-04-09T02:48:43;99231.34;;;8.45;41.08
63321;BME280;49449;48.800;9.534;2023-04-09T02:51:13;99233.38;;;8.43;41.20
63321;BME280;49449;48.800;9.534;2023-04-09T02:53:41;99239.63;;;8.42;41.26
63321;BME280;49449;48.800;9.534;2023-04-09T02:56:08;99238.22;;;8.40;41.22
63321;BME280;49449;48.800;9.534;2023-04-09T02:58:36;99232.75;;;8.41;41.33
63321;BME280;49449;48.800;9.534;2023-04-09T03:01:04;99223.41;;;8.39;41.58
63321;BME280;49449;48.800;9.534;2023-04-09T03:03:32;99223.41;;;8.39;41.40
63321;BME280;49449;48.800;9.534;2023-04-09T03:06:00;99217.34;;;8.38;41.51
63321;BME280;49449;48.800;9.534;2023-04-09T03:08:29;99221.63;;;8.39;41.52
63321;BME280;49449;48.800;9.534;2023-04-09T03:10:56;99215.75;;;8.37;41.63
63321;BME280;49449;48.800;9.534;2023-04-09T03:13:26;99216.94;;;8.34;41.48
63321;BME280;49449;48.800;9.534;2023-04-09T03:15:54;99221.97;;;8.29;41.83
63321;BME280;49449;48.800;9.534;2023-04-09T03:18:21;99227.44;;;8.28;41.84
63321;BME280;49449;48.800;9.534;2023-04-09T03:20:49;99224.59;;;8.29;41.80
63321;BME280;49449;48.800;9.534;2023-04-09T03:23:17;99225.00;;;8.26;41.74
63321;BME280;49449;48.800;9.534;2023-04-09T03:25:46;99223.38;;;8.25;41.95
63321;BME280;49449;48.800;9.534;2023-04-09T03:28:13;99227.00;;;8.24;41.93
63321;BME280;49449;48.800;9.534;2023-04-09T03:30:41;99222.75;;;8.23;41.62
63321;BME280;49449;48.800;9.534;2023-04-09T03:33:09;99218.13;;;8.25;41.65
63321;BME280;49449;48.800;9.534;2023-04-09T03:35:37;99219.09;;;8.24;41.69
63321;BME280;49449;48.800;9.534;2023-04-09T03:38:05;99221.34;;;8.27;41.75
63321;BME280;49449;48.800;9.534;2023-04-09T03:40:32;99221.75;;;8.24;41.71
63321;BME280;49449;48.800;9.534;2023-04-09T03:43:03;99221.94;;;8.23;41.71
63321;BME280;49449;48.800;9.534;2023-04-09T03:45:31;99220.13;;;8.23;41.76
63321;BME280;49449;48.800;9.534;2023-04-09T03:47:58;99222.13;;;8.21;41.74
63321;BME280;49449;48.800;9.534;2023-04-09T03:50:26;99208.34;;;8.19;41.67
63321;BME280;49449;48.800;9.534;2023-04-09T03:52:54;99219.91;;;8.18;41.46
63321;BME280;49449;48.800;9.534;2023-04-09T03:55:22;99219.06;;;8.17;41.36
63321;BME280;49449;48.800;9.534;2023-04-09T03:57:50;99218.47;;;8.15;41.70
63321;BME280;49449;48.800;9.534;2023-04-09T04:00:19;99216.84;;;8.14;41.69
63321;BME280;49449;48.800;9.534;2023-04-09T04:02:47;99214.03;;;8.16;41.79
63321;BME280;49449;48.800;9.534;2023-04-09T04:05:15;99211.16;;;8.11;41.93
63321;BME280;49449;48.800;9.534;2023-04-09T04:07:43;99211.34;;;8.09;41.95
63321;BME280;49449;48.800;9.534;2023-04-09T04:10:11;99213.78;;;8.11;41.75
63321;BME280;49449;48.800;9.534;2023-04-09T04:12:39;99205.91;;;8.11;41.94
63321;BME280;49449;48.800;9.534;2023-04-09T04:15:07;99209.53;;;8.10;41.83
63321;BME280;49449;48.800;9.534;2023-04-09T04:17:37;99207.69;;;8.10;42.00
63321;BME280;49449;48.800;9.534;2023-04-09T04:20:05;99207.50;;;8.12;41.88
63321;BME280;49449;48.800;9.534;2023-04-09T04:22:33;99210.56;;;8.09;42.09
63321;BME280;49449;48.800;9.534;2023-04-09T04:25:01;99220.25;;;8.08;41.97
63321;BME280;49449;48.800;9.534;2023-04-09T04:27:29;99223.91;;;8.07;42.07
63321;BME280;49449;48.800;9.534;2023-04-09T04:29:57;99226.53;;;8.07;41.97
63321;BME280;49449;48.800;9.534;2023-04-09T04:32:25;99237.06;;;8.07;41.99
63321;BME280;49449;48.800;9.534;2023-04-09T04:34:54;99232.19;;;8.04;42.02
63321;BME280;49449;48.800;9.534;2023-04-09T04:37:22;99232.97;;;8.05;41.94
63321;BME280;49449;48.800;9.534;2023-04-09T04:39:50;99237.88;;;8.08;41.95
63321;BME280;49449;48.800;9.534;2023-04-09T04:42:18;99242.50;;;8.06;42.10
63321;BME280;49449;48.800;9.534;2023-04-09T04:44:46;99242.69;;;8.04;42.06
63321;BME280;49449;48.800;9.534;2023-04-09T04:47:13;99245.47;;;7.96;42.20
63321;BME280;49449;48.800;9.534;2023-04-09T04:49:41;99245.06;;;7.92;42.31
63321;BME280;49449;48.800;9.534;2023-04-09T04:52:10;99239.41;;;7.95;42.23
63321;BME280;49449;48.800;9.534;2023-04-09T04:54:38;99243.03;;;7.94;42.25
63321;BME280;49449;48.800;9.534;2023-04-09T04:57:05;99241.84;;;7.97;42.07
63321;BME280;49449;48.800;9.534;2023-04-09T04:59:35;99236.78;;;7.95;42.04
63321;BME280;49449;48.800;9.534;2023-04-09T05:02:04;99234.06;;;7.82;41.81
63321;BME280;49449;48.800;9.534;2023-04-09T05:04:31;99242.97;;;7.81;42.09
63321;BME280;49449;48.800;9.534;2023-04-09T05:06:59;99240.94;;;7.83;42.37
63321;BME280;49449;48.800;9.534;2023-04-09T05:09:28;99243.22;;;7.86;42.25
63321;BME280;49449;48.800;9.534;2023-04-09T05:11:56;99234.72;;;7.91;42.28
63321;BME280;49449;48.800;9.534;2023-04-09T05:14:23;99240.81;;;7.91;42.13
63321;BME280;49449;48.800;9.534;2023-04-09T05:16:51;99242.22;;;7.94;42.00
63321;BME280;49449;48.800;9.534;2023-04-09T05:19:19;99249.75;;;7.97;42.00
63321;BME280;49449;48.800;9.534;2023-04-09T05:21:47;99240.44;;;8.01;41.84
63321;BME280;49449;48.800;9.534;2023-04-09T05:24:15;99248.16;;;8.03;42.14
63321;BME280;49449;48.800;9.534;2023-04-09T05:26:44;99247.41;;;8.09;42.16
63321;BME280;49449;48.800;9.534;2023-04-09T05:29:12;99245.63;;;8.16;42.36
63321;BME280;49449;48.800;9.534;2023-04-09T05:31:40;99244.88;;;8.29;42.47
63321;BME280;49449;48.800;9.534;2023-04-09T05:34:08;99248.75;;;8.40;42.04
63321;BME280;49449;48.800;9.534;2023-04-09T05:36:36;99246.19;;;8.53;41.51
63321;BME280;49449;48.800;9.534;2023-04-09T05:39:03;99250.69;;;8.66;41.57
63321;BME280;49449;48.800;9.534;2023-04-09T05:41:31;99245.44;;;8.72;41.54
63321;BME280;49449;48.800;9.534;2023-04-09T05:44:00;99253.19;;;8.81;41.06
63321;BME280;49449;48.800;9.534;2023-04-09T05:46:28;99254.22;;;8.93;40.74
63321;BME280;49449;48.800;9.534;2023-04-09T05:48:56;99255.28;;;9.05;40.18
63321;BME280;49449;48.800;9.534;2023-04-09T05:51:27;99259.75;;;9.11;40.09
63321;BME280;49449;48.800;9.534;2023-04-09T05:53:55;99265.03;;;9.18;40.21
63321;BME280;49449;48.800;9.534;2023-04-09T05:56:23;99257.97;;;9.25;40.06
63321;BME280;49449;48.800;9.534;2023-04-09T05:58:51;99255.53;;;9.37;39.72
63321;BME280;49449;48.800;9.534;2023-04-09T06:01:20;99259.81;;;9.45;39.54
63321;BME280;49449;48.800;9.534;2023-04-09T06:03:48;99256.75;;;9.55;39.58
63321;BME280;49449;48.800;9.534;2023-04-09T06:06:16;99247.59;;;9.64;39.40
63321;BME280;49449;48.800;9.534;2023-04-09T06:08:43;99251.25;;;9.76;39.10
63321;BME280;49449;48.800;9.534;2023-04-09T06:11:12;99252.47;;;9.87;38.90
63321;BME280;49449;48.800;9.534;2023-04-09T06:13:40;99251.06;;;9.91;37.92
63321;BME280;49449;48.800;9.534;2023-04-09T06:16:08;99251.88;;;9.98;38.30
63321;BME280;49449;48.800;9.534;2023-04-09T06:18:37;99244.13;;;10.10;37.63
63321;BME280;49449;48.800;9.534;2023-04-09T06:21:07;99258.34;;;10.16;37.44
63321;BME280;49449;48.800;9.534;2023-04-09T06:23:35;99247.53;;;10.24;37.40
63321;BME280;49449;48.800;9.534;2023-04-09T06:26:03;99250.34;;;10.36;37.07
63321;BME280;49449;48.800;9.534;2023-04-09T06:28:31;99238.34;;;10.40;37.20
63321;BME280;49449;48.800;9.534;2023-04-09T06:30:59;99246.25;;;10.47;36.90
63321;BME280;49449;48.800;9.534;2023-04-09T06:33:27;99242.19;;;10.51;36.17
63321;BME280;49449;48.800;9.534;2023-04-09T06:35:56;99247.63;;;10.56;36.71
63321;BME280;49449;48.800;9.534;2023-04-09T06:38:23;99244.34;;;10.67;36.35
63321;BME280;49449;48.800;9.534;2023-04-09T06:40:51;99242.84;;;10.78;36.32
63321;BME280;49449;48.800;9.534;2023-04-09T06:43:19;99239.22;;;10.72;36.35
63321;BME280;49449;48.800;9.534;2023-04-09T06:45:47;99245.28;;;10.86;36.37
63321;BME280;49449;48.800;9.534;2023-04-09T06:48:14;99241.53;;;11.00;35.94
63321;BME280;49449;48.800;9.534;2023-04-09T06:50:42;99247.16;;;11.11;35.72
63321;BME280;49449;48.800;9.534;2023-04-09T06:53:12;99245.97;;;11.07;35.66
63321;BME280;49449;48.800;9.534;2023-04-09T06:55:39;99245.91;;;11.13;35.73
63321;BME280;49449;48.800;9.534;2023-04-09T06:58:07;99243.31;;;11.07;35.06
63321;BME280;49449;48.800;9.534;2023-04-09T07:00:35;99253.81;;;10.88;35.32
63321;BME280;49449;48.800;9.534;2023-04-09T07:03:03;99268.03;;;10.87;35.93
63321;BME280;49449;48.800;9.534;2023-04-09T07:05:33;99279.97;;;10.96;35.73
63321;BME280;49449;48.800;9.534;2023-04-09T07:08:01;99274.88;;;10.56;35.38
63321;BME280;49449;48.800;9.534;2023-04-09T07:10:30;99280.66;;;10.78;35.18
63321;BME280;49449;48.800;9.534;2023-04-09T07:12:58;99285.16;;;10.71;34.82
63321;BME280;49449;48.800;9.534;2023-04-09T07:15:26;99280.59;;;10.40;34.97
63321;BME280;49449;48.800;9.534;2023-04-09T07:17:54;99286.44;;;10.55;34.55
63321;BME280;49449;48.800;9.534;2023-04-09T07:20:23;99276.66;;;10.62;35.82
63321;BME280;49449;48.800;9.534;2023-04-09T07:22:50;99282.31;;;10.73;35.29
63321;BME280;49449;48.800;9.534;2023-04-09T07:25:18;99282.72;;;10.70;34.06
63321;BME280;49449;48.800;9.534;2023-04-09T07:27:48;99286.44;;;10.62;34.08
63321;BME280;49449;48.800;9.534;2023-04-09T07:30:16;99291.66;;;10.75;33.61
63321;BME280;49449;48.800;9.534;2023-04-09T07:32:43;99288.44;;;10.67;33.78
63321;BME280;49449;48.800;9.534;2023-04-09T07:35:11;99291.88;;;10.74;33.38
63321;BME280;49449;48.800;9.534;2023-04-09T07:37:39;99281.84;;;10.89;33.22
63321;BME280;49449;48.800;9.534;2023-04-09T07:40:07;99280.34;;;11.07;33.56
63321;BME280;49449;48.800;9.534;2023-04-09T07:42:36;99283.34;;;11.10;33.73
63321;BME280;49449;48.800;9.534;2023-04-09T07:45:06;99277.44;;;11.15;33.38
63321;BME280;49449;48.800;9.534;2023-04-09T07:47:34;99285.16;;;11.16;32.31
63321;BME280;49449;48.800;9.534;2023-04-09T07:50:02;99281.81;;;10.96;32.95
63321;BME280;49449;48.800;9.534;2023-04-09T07:52:29;99287.97;;;10.83;32.90
63321;BME280;49449;48.800;9.534;2023-04-09T07:54:57;99289.19;;;10.87;32.69
63321;BME280;49449;48.800;9.534;2023-04-09T07:57:25;99280.50;;;11.12;32.78
63321;BME280;49449;48.800;9.534;2023-04-09T07:59:53;99278.47;;;11.14;32.34
63321;BME280;49449;48.800;9.534;2023-04-09T08:02:22;99287.72;;;11.30;32.16
63321;BME280;49449;48.800;9.534;2023-04-09T08:04:51;99277.59;;;11.52;31.63
63321;BME280;49449;48.800;9.534;2023-04-09T08:07:18;99281.09;;;11.46;31.62
63321;BME280;49449;48.800;9.534;2023-04-09T08:09:46;99290.44;;;11.48;30.97
63321;BME280;49449;48.800;9.534;2023-04-09T08:12:14;99288.44;;;11.44;31.74
63321;BME280;49449;48.800;9.534;2023-04-09T08:14:41;99286.19;;;11.72;31.49
63321;BME280;49449;48.800;9.534;2023-04-09T08:17:10;99289.59;;;11.80;31.75
63321;BME280;49449;48.800;9.534;2023-04-09T08:19:39;99287.97;;;11.79;31.78
63321;BME280;49449;48.800;9.534;2023-04-09T08:22:07;99288.91;;;12.09;30.72
63321;BME280;49449;48.800;9.534;2023-04-09T08:24:35;99288.19;;;12.02;30.78
63321;BME280;49449;48.800;9.534;2023-04-09T08:27:05;99290.75;;;11.90;30.59
63321;BME280;49449;48.800;9.534;2023-04-09T08:29:32;99281.38;;;11.63;30.47
63321;BME280;49449;48.800;9.534;2023-04-09T08:32:00;99289.22;;;11.76;32.85
63321;BME280;49449;48.800;9.534;2023-04-09T08:34:28;99288.41;;;12.01;30.66
63321;BME280;49449;48.800;9.534;2023-04-09T08:36:57;99294.56;;;11.94;30.49
63321;BME280;49449;48.800;9.534;2023-04-09T08:39:25;99295.41;;;12.13;30.06
63321;BME280;49449;48.800;9.534;2023-04-09T08:41:55;99294.97;;;12.35;30.45
63321;BME280;49449;48.800;9.534;2023-04-09T08:44:25;99299.91;;;11.88;29.99
63321;BME280;49449;48.800;9.534;2023-04-09T08:46:53;99302.34;;;11.89;29.31
63321;BME280;49449;48.800;9.534;2023-04-09T08:49:21;99302.84;;;11.80;28.96
63321;BME280;49449;48.800;9.534;2023-04-09T08:51:49;99298.34;;;11.80;29.09
63321;BME280;49449;48.800;9.534;2023-04-09T08:54:18;99301.19;;;11.85;29.12
63321;BME280;49449;48.800;9.534;2023-04-09T08:56:46;99312.25;;;12.01;29.09
63321;BME280;49449;48.800;9.534;2023-04-09T08:59:15;99307.00;;;11.94;29.18
63321;BME280;49449;48.800;9.534;2023-04-09T09:01:43;99311.47;;;11.36;29.60
63321;BME280;49449;48.800;9.534;2023-04-09T09:04:14;99307.06;;;11.87;29.13
63321;BME280;49449;48.800;9.534;2023-04-09T09:06:42;99308.19;;;11.73;29.45
63321;BME280;49449;48.800;9.534;2023-04-09T09:09:12;99315.50;;;11.46;29.17
63321;BME280;49449;48.800;9.534;2023-04-09T09:11:42;99314.25;;;11.48;29.61
63321;BME280;49449;48.800;9.534;2023-04-09T09:14:11;99308.88;;;11.30;29.81
63321;BME280;49449;48.800;9.534;2023-04-09T09:16:40;99313.50;;;11.41;29.74
63321;BME280;49449;48.800;9.534;2023-04-09T09:19:09;99320.75;;;11.52;29.67
63321;BME280;49449;48.800;9.534;2023-04-09T09:21:38;99304.59;;;11.61;29.73
63321;BME280;49449;48.800;9.534;2023-04-09T09:24:15;99303.69;;;11.73;29.19
63321;BME280;49449;48.800;9.534;2023-04-09T09:26:44;99308.19;;;11.73;29.53
63321;BME280;49449;48.800;9.534;2023-04-09T09:29:12;99301.19;;;11.79;29.60
63321;BME280;49449;48.800;9.534;2023-04-09T09:31:45;99301.41;;;11.77;29.49
63321;BME280;49449;48.800;9.534;2023-04-09T09:34:14;99300.22;;;11.73;29.40
63321;BME280;49449;48.800;9.534;2023-04-09T09:36:43;99301.88;;;11.99;28.83
63321;BME280;49449;48.800;9.534;2023-04-09T09:39:13;99298.97;;;11.82;28.57
63321;BME280;49449;48.800;9.534;2023-04-09T09:41:44;99308.66;;;12.13;28.40
63321;BME280;49449;48.800;9.534;2023-04-09T09:44:30;99298.59;;;12.22;28.15
63321;BME280;49449;48.800;9.534;2023-04-09T09:46:58;99300.66;;;12.20;27.65
63321;BME280;49449;48.800;9.534;2023-04-09T09:49:27;99292.03;;;12.43;26.79
63321;BME280;49449;48.800;9.534;2023-04-09T09:51:55;99303.31;;;12.57;26.31
63321;BME280;49449;48.800;9.534;2023-04-09T09:54:28;99300.88;;;12.74;26.90
63321;BME280;49449;48.800;9.534;2023-04-09T09:57:03;99300.66;;;13.06;26.59
63321;BME280;49449;48.800;9.534;2023-04-09T09:59:37;99300.00;;;13.11;25.39
63321;BME280;49449;48.800;9.534;2023-04-09T10:02:15;99293.84;;;12.98;26.13
63321;BME280;49449;48.800;9.534;2023-04-09T10:04:47;99285.59;;;13.18;25.98
63321;BME280;49449;48.800;9.534;2023-04-09T10:07:16;99286.91;;;13.39;26.29
63321;BME280;49449;48.800;9.534;2023-04-09T10:09:48;99288.56;;;13.52;25.95
63321;BME280;49449;48.800;9.534;2023-04-09T10:12:18;99285.63;;;13.72;26.39
63321;BME280;49449;48.800;9.534;2023-04-09T10:14:50;99272.78;;;13.69;26.54
63321;BME280;49449;48.800;9.534;2023-04-09T10:17:18;99278.91;;;14.05;25.74
63321;BME280;49449;48.800;9.534;2023-04-09T10:19:53;99265.25;;;14.25;26.15
63321;BME280;49449;48.800;9.534;2023-04-09T10:22:26;99285.91;;;14.35;24.19
63321;BME280;49449;48.800;9.534;2023-04-09T10:24:55;99283.38;;;14.28;24.58
63321;BME280;49449;48.800;9.534;2023-04-09T10:27:25;99295.00;;;13.98;24.48
63321;BME280;49449;48.800;9.534;2023-04-09T10:29:53;99285.00;;;13.58;24.89
63321;BME280;49449;48.800;9.534;2023-04-09T10:32:22;99299.16;;;13.40;25.17
63321;BME280;49449;48.800;9.534;2023-04-09T10:34:55;99287.41;;;13.48;25.29
63321;BME280;49449;48.800;9.534;2023-04-09T10:37:25;99286.69;;;13.41;24.87
63321;BME280;49449;48.800;9.534;2023-04-09T10:39:53;99282.09;;;13.06;25.50
63321;BME280;49449;48.800;9.534;2023-04-09T10:42:23;99274.59;;;13.03;25.80
63321;BME280;49449;48.800;9.534;2023-04-09T10:45:08;99277.00;;;12.74;25.86
63321;BME280;49449;48.800;9.534;2023-04-09T10:47:37;99271.06;;;12.79;26.50
63321;BME280;49449;48.800;9.534;2023-04-09T10:50:18;99268.16;;;13.11;26.72
63321;BME280;49449;48.800;9.534;2023-04-09T10:52:52;99266.50;;;13.40;26.69
63321;BME280;49449;48.800;9.534;2023-04-09T10:55:30;99269.63;;;13.49;26.33
63321;BME280;49449;48.800;9.534;2023-04-09T10:57:59;99268.28;;;13.70;26.37
63321;BME280;49449;48.800;9.534;2023-04-09T11:00:28;99263.56;;;13.72;25.93
63321;BME280;49449;48.800;9.534;2023-04-09T11:03:17;99260.56;;;13.80;25.82
63321;BME280;49449;48.800;9.534;2023-04-09T11:05:47;99249.19;;;13.61;25.13
63321;BME280;49449;48.800;9.534;2023-04-09T11:08:18;99253.31;;;13.21;24.91
63321;BME280;49449;48.800;9.534;2023-04-09T11:10:47;99245.88;;;13.12;24.04
63321;BME280;49449;48.800;9.534;2023-04-09T11:13:17;99246.38;;;13.08;25.13
63321;BME280;49449;48.800;9.534;2023-04-09T11:15:48;99251.47;;;13.22;24.83
63321;BME280;49449;48.800;9.534;2023-04-09T11:18:19;99245.84;;;13.30;23.89
63321;BME280;49449;48.800;9.534;2023-04-09T11:20:47;99240.41;;;13.25;23.68
63321;BME280;49449;48.800;9.534;2023-04-09T11:23:16;99233.94;;;13.33;24.26
63321;BME280;49449;48.800;9.534;2023-04-09T11:25:47;99230.03;;;13.47;24.39
63321;BME280;49449;48.800;9.534;2023-04-09T11:28:17;99241.47;;;13.48;24.04
63321;BME280;49449;48.800;9.534;2023-04-09T11:30:45;99224.50;;;13.49;23.84
63321;BME280;49449;48.800;9.534;2023-04-09T11:33:14;99223.56;;;13.43;23.13
63321;BME280;49449;48.800;9.534;2023-04-09T11:35:44;99223.72;;;13.60;23.54
63321;BME280;49449;48.800;9.534;2023-04-09T11:38:11;99230.31;;;13.69;24.57
63321;BME280;49449;48.800;9.534;2023-04-09T11:40:40;99227.09;;;13.67;23.60
63321;BME280;49449;48.800;9.534;2023-04-09T11:43:13;99229.47;;;13.57;24.29
63321;BME280;49449;48.800;9.534;2023-04-09T11:45:42;99230.75;;;13.42;23.59
63321;BME280;49449;48.800;9.534;2023-04-09T11:48:13;99226.34;;;13.48;23.76
63321;BME280;49449;48.800;9.534;2023-04-09T11:50:43;99230.97;;;13.53;24.77
63321;BME280;49449;48.800;9.534;2023-04-09T11:53:15;99231.91;;;13.58;23.64
63321;BME280;49449;48.800;9.534;2023-04-09T11:55:46;99229.13;;;13.53;23.52
63321;BME280;49449;48.800;9.534;2023-04-09T11:58:14;99230.50;;;13.56;23.83
63321;BME280;49449;48.800;9.534;2023-04-09T12:00:42;99227.97;;;13.49;24.22
63321;BME280;49449;48.800;9.534;2023-04-09T12:03:10;99219.53;;;13.52;24.52
63321;BME280;49449;48.800;9.534;2023-04-09T12:05:44;99227.16;;;13.60;23.14
63321;BME280;49449;48.800;9.534;2023-04-09T12:08:15;99218.91;;;13.69;24.14
63321;BME280;49449;48.800;9.534;2023-04-09T12:10:43;99222.81;;;13.78;24.04
63321;BME280;49449;48.800;9.534;2023-04-09T12:13:11;99220.94;;;13.78;23.52
63321;BME280;49449;48.800;9.534;2023-04-09T12:15:40;99216.09;;;13.87;23.73
63321;BME280;49449;48.800;9.534;2023-04-09T12:18:11;99218.19;;;13.97;23.49
63321;BME280;49449;48.800;9.534;2023-04-09T12:20:42;99229.75;;;13.79;24.33
63321;BME280;49449;48.800;9.534;2023-04-09T12:23:11;99217.94;;;13.75;23.02
63321;BME280;49449;48.800;9.534;2023-04-09T12:25:40;99215.53;;;13.97;22.54
63321;BME280;49449;48.800;9.534;2023-04-09T12:28:10;99214.69;;;13.96;23.42
63321;BME280;49449;48.800;9.534;2023-04-09T12:30:39;99213.66;;;13.97;23.16
63321;BME280;49449;48.800;9.534;2023-04-09T12:33:07;99211.38;;;13.66;23.19
63321;BME280;49449;48.800;9.534;2023-04-09T12:35:35;99212.88;;;13.73;23.37
63321;BME280;49449;48.800;9.534;2023-04-09T12:38:05;99207.91;;;13.89;24.30
63321;BME280;49449;48.800;9.534;2023-04-09T12:40:34;99204.84;;;14.09;24.05
63321;BME280;49449;48.800;9.534;2023-04-09T12:43:02;99198.41;;;14.05;24.40
63321;BME280;49449;48.800;9.534;2023-04-09T12:45:30;99203.38;;;14.13;23.07
63321;BME280;49449;48.800;9.534;2023-04-09T12:47:58;99198.53;;;13.98;22.53
63321;BME280;49449;48.800;9.534;2023-04-09T12:50:26;99201.53;;;14.01;22.72
63321;BME280;49449;48.800;9.534;2023-04-09T12:52:54;99187.28;;;14.19;22.51
63321;BME280;49449;48.800;9.534;2023-04-09T12:55:23;99191.91;;;14.12;22.93
63321;BME280;49449;48.800;9.534;2023-04-09T12:57:50;99191.75;;;14.31;22.64
63321;BME280;49449;48.800;9.534;2023-04-09T13:00:18;99190.28;;;14.23;21.84
63321;BME280;49449;48.800;9.534;2023-04-09T13:02:48;99183.97;;;14.00;22.34
63321;BME280;49449;48.800;9.534;2023-04-09T13:05:17;99191.50;;;13.80;22.34
63321;BME280;49449;48.800;9.534;2023-04-09T13:07:45;99187.94;;;13.62;22.48
63321;BME280;49449;48.800;9.534;2023-04-09T13:10:13;99179.53;;;13.77;23.33
63321;BME280;49449;48.800;9.534;2023-04-09T13:12:42;99182.81;;;13.61;22.81
63321;BME280;49449;48.800;9.534;2023-04-09T13:15:10;99170.59;;;13.83;23.33
63321;BME280;49449;48.800;9.534;2023-04-09T13:17:38;99171.28;;;14.02;22.57